createdAt,value
2022-11-05T00:01:08.376Z,5.85
2022-11-05T00:03:28.932Z,5.83
2022-11-05T00:05:50.241Z,5.84
2022-11-05T00:08:12.229Z,5.84
2022-11-05T00:10:20.137Z,5.80
2022-11-05T00:12:40.601Z,5.81
2022-11-05T00:15:00.928Z,5.81
2022-11-05T00:17:03.547Z,5.78
2022-11-05T00:19:10.094Z,5.79
2022-11-05T00:21:26.729Z,5.79
2022-11-05T00:23:48.128Z,5.71
2022-11-05T00:25:58.283Z,5.62
2022-11-05T00:28:03.245Z,5.59
2022-11-05T00:30:07.155Z,5.57
2022-11-05T00:32:09.810Z,5.60
2022-11-05T00:34:12.463Z,5.66
2022-11-05T00:36:15.112Z,5.72
2022-11-05T00:38:17.757Z,5.75
2022-11-05T00:40:21.736Z,5.81
2022-11-05T00:42:42.165Z,5.87
2022-11-05T00:45:02.376Z,5.90
2022-11-05T00:47:19.035Z,5.93
2022-11-05T00:49:33.528Z,5.98
2022-11-05T00:51:36.212Z,5.97
2022-11-05T00:53:38.835Z,5.98
2022-11-05T00:55:44.772Z,5.99
2022-11-05T00:57:46.457Z,5.97
2022-11-05T00:59:49.099Z,6.02
2022-11-05T01:01:51.861Z,6.01
2022-11-05T01:03:54.637Z,6.01
2022-11-05T01:05:59.704Z,6.07
2022-11-05T01:08:02.676Z,6.02
2022-11-05T01:10:06.015Z,6.04
2022-11-05T01:12:10.000Z,6.05
2022-11-05T01:14:15.938Z,6.06
2022-11-05T01:16:18.582Z,6.07
2022-11-05T01:18:23.078Z,6.09
2022-11-05T01:20:25.751Z,6.11
2022-11-05T01:22:28.426Z,6.09
2022-11-05T01:24:31.104Z,6.10
2022-11-05T01:26:33.817Z,6.13
2022-11-05T01:28:37.979Z,6.13
2022-11-05T01:30:40.716Z,6.10
2022-11-05T01:32:43.683Z,6.09
2022-11-05T01:34:46.334Z,6.08
2022-11-05T01:36:49.308Z,6.06
2022-11-05T01:38:51.919Z,6.07
2022-11-05T01:40:54.546Z,6.06
2022-11-05T01:42:57.272Z,6.10
2022-11-05T01:45:04.215Z,6.11
2022-11-05T01:47:06.892Z,6.17
2022-11-05T01:49:17.239Z,6.17
2022-11-05T01:51:23.397Z,6.14
2022-11-05T01:53:31.536Z,6.11
2022-11-05T01:55:37.790Z,6.11
2022-11-05T01:57:40.496Z,6.13
2022-11-05T01:59:48.154Z,6.18
2022-11-05T02:01:53.017Z,6.21
2022-11-05T02:04:00.838Z,6.21
2022-11-05T02:06:04.806Z,6.19
2022-11-05T02:08:10.191Z,6.17
2022-11-05T02:10:14.832Z,6.13
2022-11-05T02:12:17.569Z,6.12
2022-11-05T02:14:20.829Z,6.11
2022-11-05T02:16:36.661Z,6.10
2022-11-05T02:18:54.205Z,6.07
2022-11-05T02:21:15.312Z,6.08
2022-11-05T02:23:47.624Z,6.07
2022-11-05T02:26:14.950Z,6.01
2022-11-05T02:28:40.746Z,6.00
2022-11-05T02:30:47.749Z,5.97
2022-11-05T02:33:36.769Z,5.95
2022-11-05T02:36:00.279Z,5.96
2022-11-05T02:38:09.672Z,5.93
2022-11-05T02:40:20.705Z,5.92
2022-11-05T02:42:32.410Z,5.86
2022-11-05T02:44:42.588Z,5.85
2022-11-05T02:46:55.280Z,5.84
2022-11-05T02:49:05.828Z,5.83
2022-11-05T02:51:17.685Z,5.82
2022-11-05T02:53:26.190Z,5.81
2022-11-05T02:55:35.241Z,5.83
2022-11-05T02:57:38.139Z,5.81
2022-11-05T02:59:40.788Z,5.78
2022-11-05T03:01:46.756Z,5.77
2022-11-05T03:03:54.629Z,5.75
2022-11-05T03:06:12.798Z,5.74
2022-11-05T03:08:24.550Z,5.74
2022-11-05T03:10:38.372Z,5.78
2022-11-05T03:12:52.281Z,5.80
2022-11-05T03:15:02.069Z,5.79
2022-11-05T03:17:11.085Z,5.78
2022-11-05T03:19:21.573Z,5.80
2022-11-05T03:21:31.059Z,5.75
2022-11-05T03:23:42.542Z,5.74
2022-11-05T03:25:50.437Z,5.69
2022-11-05T03:27:57.462Z,5.65
2022-11-05T03:30:02.977Z,5.64
2022-11-05T03:32:08.643Z,5.65
2022-11-05T03:34:13.613Z,5.63
2022-11-05T03:36:23.283Z,5.64
2022-11-05T03:38:29.154Z,5.65
2022-11-05T03:40:36.190Z,5.73
2022-11-05T03:42:45.747Z,5.73
2022-11-05T03:44:53.830Z,5.72
2022-11-05T03:47:02.387Z,5.69
2022-11-05T03:49:09.146Z,5.69
2022-11-05T03:51:17.518Z,5.69
2022-11-05T03:53:26.414Z,5.68
2022-11-05T03:55:35.249Z,5.63
2022-11-05T03:57:42.924Z,5.67
2022-11-05T03:59:47.525Z,5.70
2022-11-05T04:01:51.117Z,5.73
2022-11-05T04:03:54.016Z,5.72
2022-11-05T04:06:13.887Z,5.76
2022-11-05T04:08:36.348Z,5.77
2022-11-05T04:10:59.862Z,5.81
2022-11-05T04:13:19.968Z,5.81
2022-11-05T04:15:22.641Z,5.86
2022-11-05T04:17:24.432Z,5.84
2022-11-05T04:19:41.035Z,5.87
2022-11-05T04:22:01.475Z,5.84
2022-11-05T04:24:10.178Z,5.90
2022-11-05T04:26:14.221Z,5.89
2022-11-05T04:28:17.171Z,5.89
2022-11-05T04:33:14.402Z,5.91
2022-11-05T04:35:17.581Z,5.91
2022-11-05T04:37:20.514Z,5.90
2022-11-05T04:39:23.147Z,5.90
2022-11-05T04:41:27.548Z,5.89
2022-11-05T04:43:30.295Z,5.87
2022-11-05T04:45:35.246Z,5.89
2022-11-05T04:47:37.904Z,5.90
2022-11-05T04:49:40.570Z,5.95
2022-11-05T04:51:43.443Z,5.90
2022-11-05T04:53:46.267Z,5.91
2022-11-05T04:55:48.989Z,5.92
2022-11-05T04:57:54.068Z,5.87
2022-11-05T04:59:56.760Z,5.91
2022-11-05T05:01:59.484Z,5.92
2022-11-05T05:04:02.207Z,5.92
2022-11-05T05:06:04.955Z,5.95
2022-11-05T05:08:07.844Z,5.93
2022-11-05T05:10:11.840Z,5.97
2022-11-05T05:12:14.498Z,5.97
2022-11-05T05:14:18.535Z,6.00
2022-11-05T05:16:23.208Z,5.99
2022-11-05T05:18:26.841Z,6.00
2022-11-05T05:20:47.148Z,5.99
2022-11-05T05:22:53.953Z,5.97
2022-11-05T05:24:57.245Z,5.93
2022-11-05T05:26:59.976Z,5.93
2022-11-05T05:29:06.773Z,5.93
2022-11-05T05:31:10.820Z,5.96
2022-11-05T05:33:13.548Z,5.94
2022-11-05T05:35:16.908Z,5.95
2022-11-05T05:37:20.984Z,5.98
2022-11-05T05:39:23.675Z,6.04
2022-11-05T05:41:26.348Z,6.00
2022-11-05T05:43:31.215Z,6.02
2022-11-05T05:45:36.310Z,6.03
2022-11-05T05:47:40.350Z,5.99
2022-11-05T05:49:43.032Z,6.00
2022-11-05T05:51:45.683Z,6.04
2022-11-05T05:53:48.388Z,6.02
2022-11-05T05:55:51.040Z,6.01
2022-11-05T05:57:54.720Z,6.04
2022-11-05T05:59:57.345Z,6.06
2022-11-05T06:02:00.550Z,6.07
2022-11-05T06:04:04.983Z,6.05
2022-11-05T06:06:09.888Z,6.09
2022-11-05T06:08:12.572Z,6.10
2022-11-05T06:10:15.317Z,6.07
2022-11-05T06:12:18.103Z,6.09
2022-11-05T06:14:20.746Z,6.09
2022-11-05T06:16:23.383Z,6.05
2022-11-05T06:18:26.105Z,6.03
2022-11-05T06:20:30.086Z,6.03
2022-11-05T06:22:32.712Z,6.07
2022-11-05T06:24:35.376Z,6.07
2022-11-05T06:26:42.659Z,6.11
2022-11-05T06:28:45.711Z,6.10
2022-11-05T06:30:51.653Z,6.13
2022-11-05T06:32:54.497Z,6.09
2022-11-05T06:34:57.207Z,6.14
2022-11-05T06:37:01.195Z,6.13
2022-11-05T06:39:03.892Z,6.17
2022-11-05T06:41:10.276Z,6.21
2022-11-05T06:43:13.861Z,6.23
2022-11-05T06:45:17.419Z,6.25
2022-11-05T06:47:20.629Z,6.28
2022-11-05T06:49:24.606Z,6.27
2022-11-05T06:51:27.286Z,6.34
2022-11-05T06:53:32.013Z,6.36
2022-11-05T06:55:34.712Z,6.39
2022-11-05T06:57:39.400Z,6.43
2022-11-05T06:59:42.398Z,6.42
2022-11-05T07:01:45.211Z,6.42
2022-11-05T07:03:48.975Z,6.37
2022-11-05T07:05:52.164Z,6.37
2022-11-05T07:07:54.857Z,6.40
2022-11-05T07:09:58.916Z,6.45
2022-11-05T07:12:01.537Z,6.51
2022-11-05T07:14:04.248Z,6.59
2022-11-05T07:16:07.285Z,6.74
2022-11-05T07:18:09.993Z,6.89
2022-11-05T07:20:13.411Z,6.99
2022-11-05T07:22:16.060Z,7.10
2022-11-05T07:24:18.731Z,7.04
2022-11-05T07:26:22.743Z,7.06
2022-11-05T07:28:25.411Z,7.18
2022-11-05T07:30:29.047Z,7.31
2022-11-05T07:32:31.740Z,7.44
2022-11-05T07:34:34.463Z,7.42
2022-11-05T07:36:39.381Z,7.43
2022-11-05T07:38:42.092Z,7.59
2022-11-05T07:40:44.723Z,7.55
2022-11-05T07:42:50.648Z,7.39
2022-11-05T07:44:53.414Z,7.52
2022-11-05T07:46:56.073Z,7.47
2022-11-05T07:48:58.755Z,7.48
2022-11-05T07:51:01.401Z,7.58
2022-11-05T07:53:06.086Z,7.47
2022-11-05T07:55:09.671Z,7.56
2022-11-05T07:57:12.436Z,7.54
2022-11-05T07:59:16.435Z,7.49
2022-11-05T08:01:19.641Z,7.41
2022-11-05T08:03:22.580Z,7.70
2022-11-05T08:05:25.408Z,7.69
2022-11-05T08:07:29.100Z,7.67
2022-11-05T08:09:31.767Z,7.64
2022-11-05T08:11:35.830Z,7.52
2022-11-05T08:13:39.380Z,7.41
2022-11-05T08:15:43.699Z,7.42
2022-11-05T08:17:46.469Z,7.39
2022-11-05T08:19:49.213Z,7.40
2022-11-05T08:21:51.924Z,7.41
2022-11-05T08:23:54.577Z,7.46
2022-11-05T08:25:57.912Z,7.44
2022-11-05T08:28:01.724Z,7.38
2022-11-05T08:30:05.143Z,7.32
2022-11-05T08:32:09.195Z,7.27
2022-11-05T08:34:11.919Z,7.35
2022-11-05T08:36:14.736Z,7.41
2022-11-05T08:38:19.506Z,7.42
2022-11-05T08:40:22.192Z,7.51
2022-11-05T08:42:24.854Z,7.55
2022-11-05T08:44:27.545Z,7.61
2022-11-05T08:46:30.223Z,7.50
2022-11-05T08:48:34.303Z,7.56
2022-11-05T08:50:38.147Z,7.54
2022-11-05T08:52:41.193Z,7.52
2022-11-05T08:54:44.535Z,7.49
2022-11-05T08:56:47.194Z,7.60
2022-11-05T08:58:49.960Z,7.64
2022-11-05T09:00:52.664Z,7.69
2022-11-05T09:02:55.503Z,7.69
2022-11-05T09:04:59.493Z,7.77
2022-11-05T09:07:02.147Z,7.79
2022-11-05T09:09:05.004Z,7.96
2022-11-05T09:11:07.656Z,8.10
2022-11-05T09:13:17.879Z,8.29
2022-11-05T09:15:23.176Z,8.46
2022-11-05T09:17:25.911Z,8.43
2022-11-05T09:19:28.569Z,8.30
2022-11-05T09:21:32.587Z,8.27
2022-11-05T09:23:35.239Z,8.26
2022-11-05T09:25:38.195Z,8.27
2022-11-05T09:27:40.841Z,8.11
2022-11-05T09:29:43.627Z,8.04
2022-11-05T09:31:46.235Z,8.05
2022-11-05T09:33:49.009Z,8.06
2022-11-05T09:35:52.797Z,8.09
2022-11-05T09:38:00.785Z,8.07
2022-11-05T09:40:04.341Z,8.06
2022-11-05T09:42:09.936Z,8.02
2022-11-05T09:44:16.995Z,8.00
2022-11-05T09:46:24.340Z,8.04
2022-11-05T09:48:31.780Z,8.13
2022-11-05T09:50:40.235Z,8.18
2022-11-05T09:52:42.879Z,8.20
2022-11-05T09:54:48.632Z,8.31
2022-11-05T09:56:52.779Z,8.27
2022-11-05T09:59:00.176Z,8.35
2022-11-05T10:01:05.365Z,8.48
2022-11-05T10:03:13.219Z,8.71
2022-11-05T10:05:18.186Z,8.93
2022-11-05T10:07:23.815Z,8.96
2022-11-05T10:09:34.302Z,8.87
2022-11-05T10:11:42.543Z,9.07
2022-11-05T10:13:48.221Z,9.30
2022-11-05T10:15:58.927Z,9.28
2022-11-05T10:18:06.885Z,9.34
2022-11-05T10:20:18.425Z,9.32
2022-11-05T10:22:21.522Z,9.29
2022-11-05T10:24:24.222Z,9.07
2022-11-05T10:26:29.101Z,9.06
2022-11-05T10:28:35.258Z,9.06
2022-11-05T10:30:38.278Z,9.03
2022-11-05T10:32:43.751Z,9.16
2022-11-05T10:34:46.550Z,9.14
2022-11-05T10:36:49.591Z,9.16
2022-11-05T10:38:52.623Z,9.33
2022-11-05T10:41:04.066Z,9.36
2022-11-05T10:43:11.667Z,9.12
2022-11-05T10:45:26.600Z,9.13
2022-11-05T10:47:41.763Z,9.12
2022-11-05T10:49:55.816Z,9.19
2022-11-05T10:52:00.917Z,9.38
2022-11-05T10:54:11.767Z,9.52
2022-11-05T10:56:35.248Z,9.61
2022-11-05T10:58:42.051Z,9.59
2022-11-05T11:00:46.642Z,9.56
2022-11-05T11:02:51.635Z,9.73
2022-11-05T11:04:55.277Z,9.88
2022-11-05T11:07:00.782Z,9.92
2022-11-05T11:09:07.004Z,9.99
2022-11-05T11:11:14.114Z,10.12
2022-11-05T11:13:21.679Z,10.17
2022-11-05T11:15:27.579Z,10.07
2022-11-05T11:17:33.338Z,9.78
2022-11-05T11:19:37.451Z,9.50
2022-11-05T11:21:41.652Z,9.46
2022-11-05T11:23:53.957Z,9.61
2022-11-05T11:26:02.235Z,9.69
2022-11-05T11:28:07.651Z,9.81
2022-11-05T11:30:19.471Z,9.90
2022-11-05T11:32:22.914Z,9.94
2022-11-05T11:34:31.318Z,9.88
2022-11-05T11:36:37.009Z,9.90
2022-11-05T11:38:41.308Z,10.07
2022-11-05T11:40:44.083Z,10.22
2022-11-05T11:42:50.084Z,10.22
2022-11-05T11:44:53.322Z,10.05
2022-11-05T11:46:58.276Z,10.00
2022-11-05T11:49:01.618Z,10.01
2022-11-05T11:51:30.279Z,9.95
2022-11-05T11:53:35.852Z,9.82
2022-11-05T11:55:38.515Z,9.89
2022-11-05T11:57:45.333Z,9.96
2022-11-05T12:00:07.717Z,9.99
2022-11-05T12:02:48.497Z,10.01
2022-11-05T12:05:05.390Z,9.97
2022-11-05T12:07:23.732Z,9.90
2022-11-05T12:09:41.128Z,10.01
2022-11-05T12:11:51.748Z,10.23
2022-11-05T12:14:04.374Z,10.20
2022-11-05T12:16:15.675Z,10.12
2022-11-05T12:18:26.624Z,10.13
2022-11-05T12:20:40.338Z,10.07
2022-11-05T12:23:03.331Z,9.94
2022-11-05T12:25:24.524Z,9.99
2022-11-05T12:27:41.373Z,9.94
2022-11-05T12:29:58.557Z,9.95
2022-11-05T12:32:18.371Z,9.98
2022-11-05T12:34:36.846Z,10.07
2022-11-05T12:36:56.964Z,10.03
2022-11-05T12:39:26.802Z,9.99
2022-11-05T12:41:34.878Z,9.97
2022-11-05T12:43:50.460Z,10.01
2022-11-05T12:46:01.496Z,9.91
2022-11-05T12:48:18.678Z,9.81
2022-11-05T12:50:29.672Z,9.96
2022-11-05T12:53:00.274Z,9.99
2022-11-05T12:55:10.155Z,10.10
2022-11-05T12:57:15.184Z,10.05
2022-11-05T12:59:23.901Z,10.00
2022-11-05T13:01:34.991Z,10.06
2022-11-05T13:03:44.268Z,10.19
2022-11-05T13:05:50.227Z,10.48
2022-11-05T13:07:58.112Z,11.08
2022-11-05T13:10:06.040Z,11.33
2022-11-05T13:12:13.956Z,10.84
2022-11-05T13:14:21.472Z,10.93
2022-11-05T13:16:28.474Z,11.48
2022-11-05T13:18:38.272Z,11.82
2022-11-05T13:20:45.860Z,11.57
2022-11-05T13:22:53.673Z,11.24
2022-11-05T13:25:00.330Z,10.49
2022-11-05T13:27:07.683Z,10.11
2022-11-05T13:29:18.995Z,10.00
2022-11-05T13:31:26.015Z,9.94
2022-11-05T13:33:33.240Z,10.02
2022-11-05T13:35:42.521Z,10.46
2022-11-05T13:38:09.615Z,10.89
2022-11-05T13:40:16.199Z,12.32
2022-11-05T13:42:59.998Z,11.77
2022-11-05T13:45:31.100Z,10.43
2022-11-05T13:47:49.448Z,10.01
2022-11-05T13:50:19.853Z,9.57
2022-11-05T13:52:46.307Z,9.15
2022-11-05T13:55:27.354Z,8.63
2022-11-05T13:57:45.956Z,8.42
2022-11-05T14:00:03.432Z,8.29
2022-11-05T14:02:16.080Z,8.27
2022-11-05T14:04:29.543Z,8.27
2022-11-05T14:06:34.288Z,8.08
2022-11-05T14:08:41.347Z,7.95
2022-11-05T14:10:46.852Z,7.93
2022-11-05T14:12:52.838Z,7.97
2022-11-05T14:15:01.986Z,7.89
2022-11-05T14:17:28.349Z,7.85
2022-11-05T14:19:35.623Z,7.93
2022-11-05T14:21:50.185Z,8.03
2022-11-05T14:23:54.344Z,8.12
2022-11-05T14:25:59.672Z,8.15
2022-11-05T14:28:02.381Z,8.19
2022-11-05T14:30:40.908Z,8.17
2022-11-05T14:32:49.980Z,8.06
2022-11-05T14:34:57.104Z,8.11
2022-11-05T14:37:36.976Z,8.21
2022-11-05T14:39:40.283Z,8.26
2022-11-05T14:41:54.408Z,8.25
2022-11-05T14:44:00.412Z,8.18
2022-11-05T14:46:06.145Z,8.26
2022-11-05T14:48:35.281Z,8.23
2022-11-05T14:50:40.686Z,8.30
2022-11-05T14:52:52.887Z,8.22
2022-11-05T14:54:57.687Z,8.12
2022-11-05T14:57:02.441Z,8.14
2022-11-05T14:59:34.036Z,8.16
2022-11-05T15:01:56.040Z,8.08
2022-11-05T15:04:17.975Z,7.94
2022-11-05T15:06:27.499Z,7.95
2022-11-05T15:08:38.209Z,8.03
2022-11-05T15:10:42.885Z,8.02
2022-11-05T15:12:48.650Z,7.98
2022-11-05T15:14:58.505Z,7.84
2022-11-05T15:17:13.366Z,7.73
2022-11-05T15:19:23.872Z,7.70
2022-11-05T15:21:28.381Z,7.67
2022-11-05T15:23:40.002Z,7.75
2022-11-05T15:25:52.962Z,7.76
2022-11-05T15:28:04.491Z,7.78
2022-11-05T15:30:15.753Z,7.83
2022-11-05T15:32:20.272Z,7.83
2022-11-05T15:34:28.883Z,7.85
2022-11-05T15:36:32.542Z,7.81
2022-11-05T15:38:36.221Z,7.79
2022-11-05T15:40:38.837Z,7.77
2022-11-05T15:42:41.446Z,7.76
2022-11-05T15:44:45.299Z,7.76
2022-11-05T15:46:47.949Z,7.75
2022-11-05T15:48:52.845Z,7.71
2022-11-05T15:50:57.360Z,7.65
2022-11-05T15:53:28.309Z,7.70
2022-11-05T15:55:24.631Z,7.75
2022-11-05T15:57:30.304Z,7.69
2022-11-05T15:59:35.019Z,7.73
2022-11-05T16:01:46.395Z,7.77
2022-11-05T16:03:49.411Z,7.75
2022-11-05T16:05:53.412Z,7.77
2022-11-05T16:07:59.360Z,7.76
2022-11-05T16:10:08.588Z,7.53
2022-11-05T16:12:24.401Z,8.21
2022-11-05T16:14:35.845Z,8.85
2022-11-05T16:16:38.801Z,9.09
2022-11-05T16:18:42.967Z,9.18
2022-11-05T16:21:00.599Z,9.05
2022-11-05T16:23:07.126Z,8.85
2022-11-05T16:25:28.297Z,8.49
2022-11-05T16:27:30.945Z,8.17
2022-11-05T16:29:35.760Z,8.03
2022-11-05T16:31:39.039Z,7.87
2022-11-05T16:33:46.320Z,7.69
2022-11-05T16:35:50.640Z,7.55
2022-11-05T16:37:53.613Z,7.51
2022-11-05T16:39:57.612Z,7.49
2022-11-05T16:42:00.641Z,7.48
2022-11-05T16:44:03.310Z,7.42
2022-11-05T16:46:06.246Z,7.42
2022-11-05T16:48:11.102Z,7.45
2022-11-05T16:50:17.318Z,7.49
2022-11-05T16:52:20.070Z,7.45
2022-11-05T16:54:22.666Z,7.48
2022-11-05T16:56:27.271Z,7.49
2022-11-05T16:58:30.080Z,7.49
2022-11-05T17:00:33.136Z,7.48
2022-11-05T17:02:35.939Z,7.47
2022-11-05T17:04:38.667Z,7.51
2022-11-05T17:06:41.355Z,7.48
2022-11-05T17:08:45.169Z,7.55
2022-11-05T17:10:47.904Z,7.58
2022-11-05T17:12:52.196Z,7.49
2022-11-05T17:14:54.829Z,7.37
2022-11-05T17:16:57.501Z,7.31
2022-11-05T17:19:00.282Z,7.29
2022-11-05T17:21:02.934Z,7.31
2022-11-05T17:23:06.448Z,7.32
2022-11-05T17:25:09.856Z,7.32
2022-11-05T17:27:12.519Z,7.32
2022-11-05T17:29:16.826Z,7.32
2022-11-05T17:31:19.648Z,7.30
2022-11-05T17:33:23.641Z,7.24
2022-11-05T17:35:27.107Z,7.26
2022-11-05T17:37:29.754Z,7.25
2022-11-05T17:39:32.459Z,7.23
2022-11-05T17:41:35.083Z,7.24
2022-11-05T17:43:37.767Z,7.23
2022-11-05T17:45:47.101Z,7.23
2022-11-05T17:47:49.768Z,7.24
2022-11-05T17:49:52.405Z,7.25
2022-11-05T17:51:55.047Z,7.25
2022-11-05T17:53:57.711Z,7.23
2022-11-05T17:56:00.345Z,7.24
2022-11-05T17:58:03.003Z,7.26
2022-11-05T18:00:06.756Z,7.26
2022-11-05T18:02:12.626Z,7.22
2022-11-05T18:04:15.376Z,7.24
2022-11-05T18:06:18.027Z,7.23
2022-11-05T18:08:20.722Z,7.27
2022-11-05T18:10:24.486Z,7.25
2022-11-05T18:12:27.172Z,7.27
2022-11-05T18:14:29.769Z,7.30
2022-11-05T18:16:32.552Z,7.28
2022-11-05T18:18:36.525Z,7.28
2022-11-05T18:20:39.610Z,7.23
2022-11-05T18:22:43.263Z,7.14
2022-11-05T18:24:45.962Z,7.10
2022-11-05T18:26:48.883Z,7.07
2022-11-05T18:28:51.482Z,7.02
2022-11-05T18:30:54.084Z,6.97
2022-11-05T18:32:56.727Z,6.86
2022-11-05T18:35:00.683Z,6.85
2022-11-05T18:37:03.443Z,6.85
2022-11-05T18:39:06.760Z,6.84
2022-11-05T18:41:09.650Z,6.83
2022-11-05T18:43:12.821Z,6.88
2022-11-05T18:45:15.642Z,6.86
2022-11-05T18:47:18.332Z,6.89
2022-11-05T18:49:21.115Z,6.93
2022-11-05T18:51:25.092Z,6.92
2022-11-05T18:53:28.477Z,6.96
2022-11-05T18:55:31.109Z,6.97
2022-11-05T18:57:34.481Z,7.00
2022-11-05T18:59:39.037Z,7.04
2022-11-05T19:01:42.528Z,7.08
2022-11-05T19:03:45.758Z,7.09
2022-11-05T19:05:48.367Z,7.09
2022-11-05T19:07:52.399Z,7.10
2022-11-05T19:09:55.036Z,7.02
2022-11-05T19:11:57.656Z,6.95
2022-11-05T19:14:00.299Z,6.93
2022-11-05T19:16:02.992Z,6.93
2022-11-05T19:18:05.648Z,6.87
2022-11-05T19:20:10.080Z,6.87
2022-11-05T19:22:12.784Z,6.87
2022-11-05T19:24:17.272Z,6.85
2022-11-05T19:26:28.133Z,6.83
2022-11-05T19:28:31.400Z,6.78
2022-11-05T19:30:34.069Z,6.78
2022-11-05T19:32:36.699Z,6.79
2022-11-05T19:34:39.403Z,6.78
2022-11-05T19:36:42.963Z,6.72
2022-11-05T19:38:45.664Z,6.69
2022-11-05T19:40:49.677Z,6.64
2022-11-05T19:42:52.319Z,6.57
2022-11-05T19:44:55.034Z,6.53
2022-11-05T19:46:57.733Z,6.46
2022-11-05T19:49:01.060Z,6.45
2022-11-05T19:51:07.961Z,6.40
2022-11-05T19:53:10.960Z,6.37
2022-11-05T19:55:13.564Z,6.33
2022-11-05T19:57:17.768Z,6.32
2022-11-05T19:59:21.010Z,6.27
2022-11-05T20:01:25.677Z,6.27
2022-11-05T20:03:28.660Z,6.28
2022-11-05T20:05:31.335Z,6.26
2022-11-05T20:07:34.087Z,6.24
2022-11-05T20:09:37.016Z,6.22
2022-11-05T20:11:40.153Z,6.20
2022-11-05T20:13:44.213Z,6.18
2022-11-05T20:15:46.875Z,6.14
2022-11-05T20:17:51.146Z,6.11
2022-11-05T20:19:54.144Z,6.09
2022-11-05T20:22:00.185Z,6.06
2022-11-05T20:24:02.996Z,6.00
2022-11-05T20:26:07.492Z,5.99
2022-11-05T20:28:10.704Z,5.90
2022-11-05T20:30:15.127Z,5.84
2022-11-05T20:32:17.757Z,5.82
2022-11-05T20:34:20.492Z,5.84
2022-11-05T20:36:25.472Z,5.84
2022-11-05T20:38:28.127Z,5.84
2022-11-05T20:40:30.781Z,5.84
2022-11-05T20:42:33.504Z,5.91
2022-11-05T20:44:36.206Z,5.89
2022-11-05T20:46:40.640Z,5.91
2022-11-05T20:48:43.671Z,5.95
2022-11-05T20:50:46.853Z,5.94
2022-11-05T20:52:49.537Z,5.94
2022-11-05T20:54:52.178Z,5.89
2022-11-05T20:56:54.878Z,5.86
2022-11-05T20:58:58.876Z,5.81
2022-11-05T21:01:01.547Z,5.77
2022-11-05T21:03:06.475Z,5.73
2022-11-05T21:05:09.758Z,5.73
2022-11-05T21:07:12.520Z,5.71
2022-11-05T21:09:15.163Z,5.72
2022-11-05T21:11:18.344Z,5.70
2022-11-05T21:13:22.020Z,5.65
2022-11-05T21:15:24.710Z,5.62
2022-11-05T21:17:27.486Z,5.63
2022-11-05T21:19:34.240Z,5.65
2022-11-05T21:21:40.889Z,5.66
2022-11-05T21:23:43.981Z,5.59
2022-11-05T21:25:47.246Z,5.62
2022-11-05T21:27:49.967Z,5.67
2022-11-05T21:29:52.621Z,5.69
2022-11-05T21:31:55.274Z,5.73
2022-11-05T21:33:57.936Z,5.72
2022-11-05T21:36:09.106Z,5.78
2022-11-05T21:38:12.393Z,5.73
2022-11-05T21:40:15.254Z,5.69
2022-11-05T21:42:17.982Z,5.68
2022-11-05T21:44:20.618Z,5.70
2022-11-05T21:46:23.300Z,5.70
2022-11-05T21:48:25.952Z,5.72
2022-11-05T21:50:42.546Z,5.76
2022-11-05T21:53:04.149Z,5.77
2022-11-05T21:55:24.602Z,5.78
2022-11-05T21:57:44.925Z,5.79
2022-11-05T21:59:51.828Z,5.76
2022-11-05T22:02:01.379Z,5.77
2022-11-05T22:04:04.499Z,5.78
2022-11-05T22:06:07.514Z,5.78
2022-11-05T22:08:11.823Z,5.75
2022-11-05T22:10:16.500Z,5.72
2022-11-05T22:12:19.465Z,5.69
2022-11-05T22:14:22.656Z,5.68
2022-11-05T22:16:25.295Z,5.64
2022-11-05T22:18:28.085Z,5.66
2022-11-05T22:20:30.793Z,5.60
2022-11-05T22:22:33.902Z,5.54
2022-11-05T22:24:38.749Z,5.55
2022-11-05T22:26:42.225Z,5.56
2022-11-05T22:28:44.896Z,5.58
2022-11-05T22:30:47.524Z,5.57
2022-11-05T22:32:50.151Z,5.53
2022-11-05T22:34:52.860Z,5.52
2022-11-05T22:36:55.552Z,5.48
2022-11-05T22:38:58.194Z,5.40
2022-11-05T22:41:08.015Z,5.35
2022-11-05T22:43:10.662Z,5.36
2022-11-05T22:45:13.319Z,5.28
2022-11-05T22:47:18.933Z,5.25
2022-11-05T22:49:21.948Z,5.23
2022-11-05T22:51:26.457Z,5.24
2022-11-05T22:53:29.175Z,5.24
2022-11-05T22:55:31.959Z,5.22
2022-11-05T22:57:35.946Z,5.24
2022-11-05T22:59:38.614Z,5.25
2022-11-05T23:01:42.220Z,5.22
2022-11-05T23:03:46.604Z,5.18
2022-11-05T23:05:57.629Z,5.16
2022-11-05T23:08:17.679Z,5.13
2022-11-05T23:10:37.875Z,5.12
2022-11-05T23:12:43.593Z,5.11
2022-11-05T23:14:46.338Z,5.17
2022-11-05T23:17:09.920Z,5.14
2022-11-05T23:19:30.706Z,5.11
2022-11-05T23:21:50.717Z,5.12
2022-11-05T23:24:05.494Z,5.10
2022-11-05T23:26:22.066Z,5.08
2022-11-05T23:28:26.091Z,5.10
2022-11-05T23:30:29.306Z,5.12
2022-11-05T23:32:32.441Z,5.18
2022-11-05T23:34:35.130Z,5.23
2022-11-05T23:36:55.296Z,5.24
2022-11-05T23:38:58.031Z,5.28
2022-11-05T23:41:19.120Z,5.27
2022-11-05T23:43:39.498Z,5.28
2022-11-05T23:46:02.900Z,5.26
2022-11-05T23:48:17.820Z,5.19
2022-11-05T23:50:20.489Z,5.24
2022-11-05T23:52:23.132Z,5.11
2022-11-05T23:54:25.802Z,5.09
2022-11-05T23:56:28.453Z,5.12
2022-11-05T23:58:31.162Z,5.14
